Time,TemperatureF,DewpointF,PressureIn,WindDirection,WindDirectionDegrees,WindSpeedMPH,WindSpeedGustMPH,Humidity,HourlyPrecipIn,Conditions,Clouds,dailyrainin,SoftwareType,DateUTC
2013-09-21 00:23:00,69.0,66.0,-100.00,North,-999,-999.0,-999.0,89,0.00,,,1.22,,2013-09-21 05:23:00,
2013-09-21 00:52:00,69.0,66.0,-100.00,North,-999,-999.0,-999.0,90,0.00,,,1.19,,2013-09-21 05:52:00,
2013-09-21 01:22:00,70.0,66.0,-100.00,North,-999,-999.0,-999.0,89,0.00,,,1.15,,2013-09-21 06:22:00,
2013-09-21 01:52:00,70.0,66.0,-100.00,North,-999,-999.0,-999.0,88,0.00,,,1.03,,2013-09-21 06:52:00,
2013-09-21 02:21:00,70.0,66.0,-100.00,North,-999,-999.0,-999.0,86,0.00,,,0.95,,2013-09-21 07:21:00,
2013-09-21 02:52:00,70.0,66.0,-100.00,North,-999,-999.0,-999.0,86,0.00,,,0.87,,2013-09-21 07:52:00,
2013-09-21 03:22:00,70.0,66.0,-100.00,North,-999,-999.0,-999.0,86,0.00,,,0.75,,2013-09-21 08:22:00,
2013-09-21 03:52:00,70.0,66.0,-100.00,North,-999,-999.0,-999.0,86,0.00,,,0.73,,2013-09-21 08:52:00,
2013-09-21 04:22:00,70.0,66.0,-100.00,North,-999,-999.0,-999.0,85,0.00,,,0.73,,2013-09-21 09:22:00,
2013-09-21 04:53:00,70.0,65.0,-100.00,North,-999,-999.0,-999.0,85,0.00,,,0.73,,2013-09-21 09:53:00,
2013-09-21 05:23:00,69.0,64.0,-100.00,North,-999,-999.0,-999.0,84,0.00,,,0.71,,2013-09-21 10:23:00,
2013-09-21 05:52:00,69.0,64.0,-100.00,North,-999,-999.0,-999.0,84,0.00,,,0.70,,2013-09-21 10:52:00,
2013-09-21 06:23:00,68.0,64.0,-100.00,North,-999,-999.0,-999.0,84,0.00,,,0.70,,2013-09-21 11:23:00,
2013-09-21 06:52:00,68.0,63.0,-100.00,North,-999,-999.0,-999.0,84,0.00,,,0.70,,2013-09-21 11:52:00,
2013-09-21 07:02:00,68.0,63.0,-100.00,North,-999,-999.0,-999.0,84,0.00,,,0.70,,2013-09-21 12:02:00,
2013-09-21 07:21:00,67.0,62.0,-100.00,North,-999,-999.0,-999.0,84,0.00,,,0.70,,2013-09-21 12:21:00,
2013-09-21 07:52:00,66.0,60.0,-100.00,North,-999,-999.0,-999.0,79,0.00,,,0.70,,2013-09-21 12:52:00,
2013-09-21 08:21:00,65.0,59.0,-100.00,North,-999,-999.0,-999.0,81,0.00,,,0.70,,2013-09-21 13:21:00,
2013-09-21 08:52:00,65.0,58.0,-100.00,North,-999,-999.0,-999.0,78,0.00,,,0.70,,2013-09-21 13:52:00,
2013-09-21 09:22:00,66.0,58.0,-100.00,North,-999,-999.0,-999.0,75,0.00,,,0.70,,2013-09-21 14:22:00,
2013-09-21 09:52:00,68.0,58.0,-100.00,North,-999,-999.0,-999.0,71,0.00,,,0.70,,2013-09-21 14:52:00,
2013-09-21 10:22:00,69.0,58.0,-100.00,North,-999,-999.0,-999.0,67,0.00,,,0.70,,2013-09-21 15:22:00,
2013-09-21 10:54:00,70.0,58.0,-100.00,North,-999,-999.0,-999.0,66,0.00,,,0.70,,2013-09-21 15:54:00,
2013-09-21 11:24:00,72.0,57.0,-100.00,North,-999,-999.0,-999.0,60,0.00,,,0.70,,2013-09-21 16:24:00,
2013-09-21 11:54:00,73.0,57.0,-100.00,North,-999,-999.0,-999.0,57,0.00,,,0.70,,2013-09-21 16:54:00,
2013-09-21 12:23:00,75.0,57.0,-100.00,North,-999,-999.0,-999.0,53,0.00,,,0.70,,2013-09-21 17:23:00,
2013-09-21 12:52:00,76.0,55.0,-100.00,North,-999,-999.0,-999.0,47,0.00,,,0.70,,2013-09-21 17:52:00,
2013-09-21 13:22:00,78.0,53.0,-100.00,North,-999,-999.0,-999.0,42,0.00,,,0.70,,2013-09-21 18:22:00,
2013-09-21 13:52:00,80.0,47.0,-100.00,North,-999,-999.0,-999.0,32,0.00,,,0.61,,2013-09-21 18:52:00,
2013-09-21 14:21:00,81.0,47.0,-100.00,North,-999,-999.0,-999.0,31,0.00,,,0.47,,2013-09-21 19:21:00,
2013-09-21 14:52:00,81.0,48.0,-100.00,North,-999,-999.0,-999.0,32,0.00,,,0.24,,2013-09-21 19:52:00,
2013-09-21 15:22:00,82.0,46.0,-100.00,North,-999,-999.0,-999.0,29,0.00,,,0.12,,2013-09-21 20:22:00,
2013-09-21 15:52:00,83.0,48.0,-100.00,North,-999,-999.0,-999.0,30,0.00,,,0.07,,2013-09-21 20:52:00,
2013-09-21 16:22:00,83.0,47.0,-100.00,North,-999,-999.0,-999.0,28,0.00,,,0.07,,2013-09-21 21:22:00,
2013-09-21 16:54:00,84.0,48.0,-100.00,North,-999,-999.0,-999.0,29,0.00,,,0.06,,2013-09-21 21:54:00,
2013-09-21 17:23:00,84.0,49.0,-100.00,North,-999,-999.0,-999.0,29,0.00,,,0.04,,2013-09-21 22:23:00,
2013-09-21 17:53:00,85.0,44.0,-100.00,North,-999,-999.0,-999.0,24,0.00,,,0.02,,2013-09-21 22:53:00,
2013-09-21 18:23:00,84.0,43.0,-100.00,North,-999,-999.0,-999.0,24,0.00,,,0.01,,2013-09-21 23:23:00,
2013-09-21 18:52:00,84.0,44.0,-100.00,North,-999,-999.0,-999.0,25,0.00,,,0.01,,2013-09-21 23:52:00,
2013-09-21 19:22:00,82.0,45.0,-100.00,North,-999,-999.0,-999.0,27,0.00,,,0.01,,2013-09-22 00:22:00,
2013-09-21 19:52:00,78.0,47.0,-100.00,North,-999,-999.0,-999.0,34,0.00,,,-99.99,,2013-09-22 00:52:00,
2013-09-21 20:21:00,74.0,47.0,-100.00,North,-999,-999.0,-999.0,38,0.00,,,-99.99,,2013-09-22 01:21:00,
2013-09-21 21:52:00,65.0,52.0,-100.00,North,-999,-999.0,-999.0,63,0.00,,,0.00,,2013-09-22 02:52:00,
2013-09-21 22:22:00,63.0,52.0,-100.00,North,-999,-999.0,-999.0,67,0.00,,,0.00,,2013-09-22 03:22:00,
2013-09-21 22:44:00,62.0,52.0,-100.00,North,-999,-999.0,-999.0,68,0.00,,,0.00,,2013-09-22 03:44:00,
2013-09-21 22:54:00,62.0,52.0,-100.00,North,-999,-999.0,-999.0,68,0.00,,,0.00,,2013-09-22 03:54:00,
2013-09-21 23:23:00,61.0,52.0,-100.00,North,-999,-999.0,-999.0,71,0.00,,,-99.99,,2013-09-22 04:23:00,
2013-09-21 23:54:00,60.0,51.0,-100.00,North,-999,-999.0,-999.0,72,-99.99,,,0.00,,2013-09-22 04:54:00,